Time;durP1;ratioP1;P1;durP2;ratioP2;P2;SDS_P1;SDS_P2;PMS_P1;PMS_P2;Temp;Humidity;BMP_temperature;BMP_pressure;BME280_temperature;BME280_humidity;BME280_pressure;Samples;Min_cycle;Max_cycle;Signal;HPM_P1;HPM_P2
2021/03/12 00:02:01;;;;;;;0.73;0.43;;;;;;;;;;5032981;28;20587;-69
2021/03/12 00:04:27;;;;;;;2.83;1.20;;;;;;;;;;5033349;28;20428;-70
2021/03/12 00:06:53;;;;;;;0.70;0.50;;;;;;;;;;5033326;28;20484;-70
2021/03/12 00:09:19;;;;;;;0.70;0.50;;;;;;;;;;5015575;28;20399;-68
2021/03/12 00:11:45;;;;;;;0.70;0.40;;;;;;;;;;5033110;28;20500;-69
2021/03/12 00:14:11;;;;;;;0.70;0.50;;;;;;;;;;5033078;28;20424;-69
2021/03/12 00:16:37;;;;;;;0.70;0.40;;;;;;;;;;5033201;28;20406;-69
2021/03/12 00:19:03;;;;;;;0.90;0.70;;;;;;;;;;5032991;28;20412;-71
2021/03/12 00:21:29;;;;;;;2.33;1.23;;;;;;;;;;5032760;28;20970;-70
2021/03/12 00:23:56;;;;;;;0.70;0.50;;;;;;;;;;5034015;28;20412;-70
2021/03/12 00:26:22;;;;;;;0.70;0.50;;;;;;;;;;5033015;28;20400;-70
2021/03/12 00:28:48;;;;;;;0.70;0.50;;;;;;;;;;5032883;28;20907;-70
2021/03/12 00:31:14;;;;;;;0.70;0.50;;;;;;;;;;5032722;28;20432;-70
2021/03/12 00:33:40;;;;;;;0.70;0.40;;;;;;;;;;5032833;28;20801;-71
2021/03/12 00:36:07;;;;;;;0.70;0.40;;;;;;;;;;5032889;28;20911;-69
2021/03/12 00:38:33;;;;;;;0.97;0.80;;;;;;;;;;5032559;28;20474;-70
2021/03/12 00:41:00;;;;;;;0.70;0.50;;;;;;;;;;5032157;28;20931;-68
2021/03/12 00:43:26;;;;;;;0.70;0.40;;;;;;;;;;5032327;28;20424;-70
2021/03/12 00:45:54;;;;;;;1.97;0.83;;;;;;;;;;5032261;28;20396;-68
2021/03/12 00:48:20;;;;;;;0.90;0.60;;;;;;;;;;5032366;28;20420;-72
2021/03/12 00:50:46;;;;;;;0.70;0.40;;;;;;;;;;5031035;28;20396;-73
2021/03/12 00:53:12;;;;;;;0.70;0.43;;;;;;;;;;5032376;28;20957;-71
2021/03/12 00:55:38;;;;;;;1.97;0.70;;;;;;;;;;5032088;28;20439;-70
2021/03/12 00:58:05;;;;;;;0.70;0.40;;;;;;;;;;5014519;28;20930;-70
2021/03/12 01:00:31;;;;;;;0.70;0.50;;;;;;;;;;5031829;28;20393;-69
2021/03/12 01:02:58;;;;;;;0.80;0.60;;;;;;;;;;5032001;28;20530;-70
2021/03/12 01:05:24;;;;;;;0.70;0.50;;;;;;;;;;5034396;28;20411;-71
2021/03/12 01:07:52;;;;;;;0.70;0.40;;;;;;;;;;5044932;28;20399;-69
2021/03/12 01:10:19;;;;;;;2.20;2.10;;;;;;;;;;5038292;28;20439;-70
2021/03/12 01:12:45;;;;;;;0.80;0.60;;;;;;;;;;5039738;28;20419;-70
2021/03/12 01:15:13;;;;;;;0.70;0.50;;;;;;;;;;5051911;28;20447;-69
2021/03/12 01:17:39;;;;;;;0.70;0.40;;;;;;;;;;5051808;28;20487;-70
2021/03/12 01:20:07;;;;;;;0.70;0.50;;;;;;;;;;5051897;28;20436;-70
2021/03/12 01:22:33;;;;;;;0.90;0.60;;;;;;;;;;5033992;28;20576;-68
2021/03/12 01:25:00;;;;;;;0.70;0.40;;;;;;;;;;5034393;28;20973;-71
2021/03/12 01:27:26;;;;;;;0.70;0.40;;;;;;;;;;5052416;28;20499;-69
2021/03/12 01:29:52;;;;;;;0.70;0.50;;;;;;;;;;5051398;28;20686;-67
2021/03/12 01:32:18;;;;;;;0.70;0.50;;;;;;;;;;5051634;28;20403;-67
2021/03/12 01:34:44;;;;;;;0.70;0.47;;;;;;;;;;5051872;28;20944;-69
2021/03/12 01:37:09;;;;;;;1.27;1.17;;;;;;;;;;5052087;28;20491;-70
2021/03/12 01:39:35;;;;;;;0.80;0.70;;;;;;;;;;5049752;28;20427;-70
2021/03/12 01:42:01;;;;;;;0.70;0.50;;;;;;;;;;5031041;28;20452;-69
2021/03/12 01:44:28;;;;;;;0.70;0.40;;;;;;;;;;5031529;28;20441;-68
2021/03/12 01:46:56;;;;;;;0.70;0.50;;;;;;;;;;5029259;28;20401;-69
2021/03/12 01:49:22;;;;;;;0.73;0.47;;;;;;;;;;5030557;28;20405;-70
2021/03/12 01:51:48;;;;;;;0.90;0.50;;;;;;;;;;5030496;28;20431;-70
2021/03/12 01:54:14;;;;;;;0.70;0.50;;;;;;;;;;5031082;28;20428;-70
2021/03/12 01:56:40;;;;;;;0.70;0.40;;;;;;;;;;5013292;28;20417;-70
2021/03/12 01:59:08;;;;;;;0.70;0.50;;;;;;;;;;5031170;28;20909;-70
2021/03/12 02:01:34;;;;;;;0.70;0.50;;;;;;;;;;5031203;28;20501;-69
2021/03/12 02:04:00;;;;;;;0.80;0.50;;;;;;;;;;5050874;28;20423;-70
2021/03/12 02:06:26;;;;;;;1.47;0.80;;;;;;;;;;5050874;28;20402;-70
2021/03/12 02:08:52;;;;;;;0.70;0.50;;;;;;;;;;5049090;28;20435;-70
2021/03/12 02:11:19;;;;;;;0.70;0.50;;;;;;;;;;5030797;28;20404;-71
2021/03/12 02:14:02;;;;;;;1.67;1.57;;;;;;;;;;5031380;28;20430;-68
2021/03/12 02:16:42;;;;;;;1.97;0.50;;;;;;;;;;5030950;28;20897;-68
2021/03/12 02:19:21;;;;;;;1.07;0.70;;;;;;;;;;5030870;28;20844;-70
2021/03/12 02:21:54;;;;;;;0.70;0.50;;;;;;;;;;5030595;28;20745;-70
2021/03/12 02:24:22;;;;;;;0.70;0.53;;;;;;;;;;5012987;28;20472;-69
2021/03/12 02:26:48;;;;;;;0.80;0.60;;;;;;;;;;5031217;28;20555;-69
2021/03/12 02:29:21;;;;;;;4.03;0.70;;;;;;;;;;5030692;28;20500;-69
2021/03/12 02:31:51;;;;;;;0.70;0.50;;;;;;;;;;5030468;28;20404;-69
2021/03/12 02:34:19;;;;;;;0.70;0.47;;;;;;;;;;5031128;28;20432;-69
2021/03/12 02:36:47;;;;;;;0.80;0.53;;;;;;;;;;5030856;28;20416;-70
2021/03/12 02:39:16;;;;;;;0.80;0.70;;;;;;;;;;5030950;28;20410;-68
2021/03/12 02:41:42;;;;;;;0.70;0.50;;;;;;;;;;5030186;28;20491;-70
2021/03/12 02:44:09;;;;;;;0.70;0.50;;;;;;;;;;5030434;28;20993;-69
2021/03/12 02:46:35;;;;;;;0.70;0.50;;;;;;;;;;5029250;28;20407;-70
2021/03/12 02:49:01;;;;;;;0.70;0.50;;;;;;;;;;5030522;28;20404;-70
2021/03/12 02:51:27;;;;;;;0.70;0.40;;;;;;;;;;5030118;28;20930;-70
2021/03/12 02:53:54;;;;;;;0.73;0.50;;;;;;;;;;5030531;28;20436;-70
2021/03/12 02:56:21;;;;;;;1.07;0.90;;;;;;;;;;5030452;28;20408;-69
2021/03/12 02:58:47;;;;;;;0.93;0.63;;;;;;;;;;5030371;28;20700;-68
2021/03/12 03:01:13;;;;;;;1.07;0.97;;;;;;;;;;5029897;28;20459;-71
2021/03/12 03:03:40;;;;;;;0.70;0.50;;;;;;;;;;5030462;28;20465;-70
2021/03/12 03:06:07;;;;;;;0.70;0.60;;;;;;;;;;5012632;28;20906;-69
2021/03/12 03:08:33;;;;;;;0.70;0.50;;;;;;;;;;5030367;28;20496;-69
2021/03/12 03:11:00;;;;;;;0.70;0.50;;;;;;;;;;5030210;28;20410;-70
2021/03/12 03:13:29;;;;;;;1.10;0.70;;;;;;;;;;5030226;28;20479;-70
2021/03/12 03:15:55;;;;;;;0.90;0.60;;;;;;;;;;5034641;28;20755;-69
2021/03/12 03:18:21;;;;;;;0.93;0.93;;;;;;;;;;5034265;28;20749;-70
2021/03/12 03:20:48;;;;;;;0.70;0.40;;;;;;;;;;5033852;28;20516;-67
2021/03/12 03:23:14;;;;;;;1.30;0.97;;;;;;;;;;5033946;28;20422;-69
2021/03/12 03:25:39;;;;;;;0.70;0.60;;;;;;;;;;5034021;28;20730;-71
2021/03/12 03:28:06;;;;;;;0.73;0.60;;;;;;;;;;5033877;28;20772;-71
2021/03/12 03:30:32;;;;;;;0.70;0.53;;;;;;;;;;5033782;28;20524;-69
2021/03/12 03:32:58;;;;;;;0.70;0.40;;;;;;;;;;5033614;28;20954;-68
2021/03/12 03:35:24;;;;;;;1.00;0.77;;;;;;;;;;5033885;28;20501;-71
2021/03/12 03:37:50;;;;;;;0.70;0.53;;;;;;;;;;5033261;28;20407;-70
2021/03/12 03:40:16;;;;;;;0.70;0.60;;;;;;;;;;5033039;28;20409;-69
2021/03/12 03:42:45;;;;;;;0.77;0.60;;;;;;;;;;5033086;28;20455;-70
2021/03/12 03:45:11;;;;;;;0.70;0.50;;;;;;;;;;5033772;28;20462;-69
2021/03/12 03:47:38;;;;;;;0.70;0.53;;;;;;;;;;5033738;28;20400;-69
2021/03/12 03:50:04;;;;;;;1.10;0.87;;;;;;;;;;5033795;28;20767;-69
2021/03/12 03:52:30;;;;;;;0.70;0.60;;;;;;;;;;5015677;28;20516;-70
2021/03/12 03:54:57;;;;;;;0.70;0.50;;;;;;;;;;5033537;28;20411;-69
2021/03/12 03:57:24;;;;;;;1.27;1.17;;;;;;;;;;5032087;28;20460;-69
2021/03/12 03:59:50;;;;;;;2.60;0.60;;;;;;;;;;5033078;28;20779;-68
2021/03/12 04:02:18;;;;;;;0.80;0.50;;;;;;;;;;5031835;28;20460;-70
2021/03/12 04:04:45;;;;;;;3.37;0.90;;;;;;;;;;5015508;28;20408;-70
2021/03/12 04:07:12;;;;;;;0.90;0.60;;;;;;;;;;5033228;28;20397;-70
2021/03/12 04:09:38;;;;;;;0.70;0.47;;;;;;;;;;5033080;28;20375;-68
2021/03/12 04:12:06;;;;;;;1.20;0.83;;;;;;;;;;5032655;28;20413;-70
2021/03/12 04:14:32;;;;;;;0.70;0.50;;;;;;;;;;5041479;28;20470;-70
2021/03/12 04:16:58;;;;;;;0.90;0.50;;;;;;;;;;5053112;28;20439;-70
2021/03/12 04:19:24;;;;;;;0.70;0.50;;;;;;;;;;5053134;28;20406;-69
2021/03/12 04:21:51;;;;;;;0.70;0.50;;;;;;;;;;5040134;28;20561;-69
2021/03/12 04:24:17;;;;;;;0.70;0.50;;;;;;;;;;5032246;28;20934;-68
2021/03/12 04:26:43;;;;;;;0.70;0.60;;;;;;;;;;5014291;28;20505;-69
2021/03/12 04:29:09;;;;;;;0.80;0.60;;;;;;;;;;5032396;28;20903;-68
2021/03/12 04:31:35;;;;;;;1.83;0.60;;;;;;;;;;5031991;28;20799;-67
2021/03/12 04:34:01;;;;;;;0.70;0.40;;;;;;;;;;5032178;28;20429;-70
2021/03/12 04:36:28;;;;;;;0.70;0.50;;;;;;;;;;5032433;28;20406;-69
2021/03/12 04:38:54;;;;;;;1.20;1.10;;;;;;;;;;5032251;28;20408;-69
2021/03/12 04:41:20;;;;;;;0.77;0.60;;;;;;;;;;5031751;28;20939;-70
2021/03/12 04:43:46;;;;;;;0.70;0.40;;;;;;;;;;5032047;28;20527;-69
2021/03/12 04:46:13;;;;;;;1.37;0.83;;;;;;;;;;5025230;28;20998;-69
2021/03/12 04:48:41;;;;;;;0.70;0.50;;;;;;;;;;5031725;28;20409;-69
2021/03/12 04:51:08;;;;;;;0.83;0.63;;;;;;;;;;5031971;28;20401;-70
2021/03/12 04:53:35;;;;;;;4.93;0.80;;;;;;;;;;5032350;28;20931;-69
2021/03/12 04:56:01;;;;;;;0.70;0.40;;;;;;;;;;5032150;28;20479;-70
2021/03/12 04:58:27;;;;;;;0.70;0.40;;;;;;;;;;5032062;28;20414;-70
2021/03/12 05:00:53;;;;;;;1.20;1.10;;;;;;;;;;5032356;28;20416;-70
2021/03/12 05:03:19;;;;;;;0.70;0.53;;;;;;;;;;5032188;28;20420;-71
2021/03/12 05:05:46;;;;;;;0.80;0.70;;;;;;;;;;5033387;28;20396;-70
2021/03/12 05:08:12;;;;;;;0.70;0.43;;;;;;;;;;5032079;28;20451;-69
2021/03/12 05:10:43;;;;;;;1.07;0.90;;;;;;;;;;5031655;28;20759;-70
2021/03/12 05:13:09;;;;;;;2.00;1.90;;;;;;;;;;5031785;28;20452;-69
2021/03/12 05:15:35;;;;;;;1.10;1.00;;;;;;;;;;5032417;28;20433;-67
2021/03/12 05:18:01;;;;;;;0.80;0.80;;;;;;;;;;5032457;28;20397;-67
2021/03/12 05:20:27;;;;;;;0.70;0.50;;;;;;;;;;5031915;28;20400;-70
2021/03/12 05:22:53;;;;;;;0.70;0.60;;;;;;;;;;5028945;28;20525;-70
2021/03/12 05:25:19;;;;;;;0.70;0.50;;;;;;;;;;5031460;28;20450;-71
2021/03/12 05:27:45;;;;;;;0.80;0.67;;;;;;;;;;5013530;28;20428;-70
2021/03/12 05:30:11;;;;;;;0.70;0.40;;;;;;;;;;5031352;28;20422;-69
2021/03/12 05:32:37;;;;;;;0.70;0.40;;;;;;;;;;5031032;28;20941;-69
2021/03/12 05:35:03;;;;;;;1.13;0.70;;;;;;;;;;5013457;28;20775;-71
2021/03/12 05:37:29;;;;;;;4.20;1.60;;;;;;;;;;5030507;28;20955;-70
2021/03/12 05:39:55;;;;;;;0.70;0.60;;;;;;;;;;5030854;28;20546;-68
2021/03/12 05:42:21;;;;;;;0.70;0.50;;;;;;;;;;5030560;28;20495;-70
2021/03/12 05:44:52;;;;;;;0.73;0.47;;;;;;;;;;5030742;28;20424;-68
2021/03/12 05:47:18;;;;;;;3.03;0.77;;;;;;;;;;5031096;28;20908;-69
2021/03/12 05:49:44;;;;;;;0.70;0.50;;;;;;;;;;5030881;28;20416;-66
2021/03/12 05:52:11;;;;;;;0.70;0.50;;;;;;;;;;5028127;28;21012;-68
2021/03/12 05:54:37;;;;;;;0.70;0.50;;;;;;;;;;5030941;28;20382;-70
2021/03/12 05:57:03;;;;;;;0.70;0.50;;;;;;;;;;5013533;28;20416;-69
2021/03/12 05:59:29;;;;;;;0.70;0.53;;;;;;;;;;5030734;28;20906;-70
2021/03/12 06:01:55;;;;;;;1.43;1.33;;;;;;;;;;5012888;28;20443;-69
2021/03/12 06:04:21;;;;;;;0.80;0.63;;;;;;;;;;5012092;28;20905;-70
2021/03/12 06:06:47;;;;;;;0.70;0.50;;;;;;;;;;5030857;28;20405;-70
2021/03/12 06:09:13;;;;;;;0.80;0.77;;;;;;;;;;5029659;28;20451;-71
2021/03/12 06:11:39;;;;;;;0.87;0.87;;;;;;;;;;5029540;28;21112;-70
2021/03/12 06:14:05;;;;;;;0.70;0.40;;;;;;;;;;5031872;28;20458;-70
2021/03/12 06:16:31;;;;;;;0.70;0.50;;;;;;;;;;5036480;28;20420;-71
2021/03/12 06:19:09;;;;;;;0.80;0.60;;;;;;;;;;5030893;28;20409;-72
2021/03/12 06:21:35;;;;;;;1.10;1.00;;;;;;;;;;5025768;28;20850;-71
2021/03/12 06:24:01;;;;;;;1.33;0.70;;;;;;;;;;5052618;23;20488;-70
2021/03/12 06:26:45;;;;;;;0.70;0.40;;;;;;;;;;5028799;28;20454;-70
2021/03/12 06:29:11;;;;;;;0.70;0.53;;;;;;;;;;5026649;28;20397;-70
2021/03/12 06:31:37;;;;;;;0.70;0.50;;;;;;;;;;5025754;28;20910;-69
2021/03/12 06:34:10;;;;;;;1.00;0.70;;;;;;;;;;5032129;28;20423;-70
2021/03/12 06:36:36;;;;;;;1.00;0.70;;;;;;;;;;5031602;28;20467;-70
2021/03/12 06:39:03;;;;;;;0.80;0.50;;;;;;;;;;5033700;28;20399;-69
2021/03/12 06:41:36;;;;;;;1.33;0.70;;;;;;;;;;5029761;28;20479;-70
2021/03/12 06:44:21;;;;;;;0.70;0.60;;;;;;;;;;5030081;28;20512;-69
2021/03/12 06:46:47;;;;;;;0.83;0.50;;;;;;;;;;5030043;28;20425;-69
2021/03/12 06:49:13;;;;;;;0.90;0.80;;;;;;;;;;5031640;28;20437;-68
2021/03/12 06:51:53;;;;;;;0.70;0.40;;;;;;;;;;5033965;28;20499;-69
2021/03/12 06:54:18;;;;;;;0.80;0.73;;;;;;;;;;5035993;28;20442;-70
2021/03/12 06:56:45;;;;;;;0.70;0.40;;;;;;;;;;5035112;28;20782;-69
2021/03/12 06:59:10;;;;;;;2.10;1.67;;;;;;;;;;5015669;28;20408;-70
2021/03/12 07:01:36;;;;;;;1.10;0.63;;;;;;;;;;5034037;28;20785;-69
2021/03/12 07:04:09;;;;;;;0.77;0.67;;;;;;;;;;5016615;28;20930;-70
2021/03/12 07:06:49;;;;;;;0.80;0.70;;;;;;;;;;5014565;28;20442;-71
2021/03/12 07:09:15;;;;;;;0.70;0.50;;;;;;;;;;5029365;28;20428;-71
2021/03/12 07:11:41;;;;;;;0.70;0.60;;;;;;;;;;5034108;28;20416;-70
2021/03/12 07:14:07;;;;;;;0.70;0.40;;;;;;;;;;5033962;28;20888;-71
2021/03/12 07:16:33;;;;;;;0.80;0.50;;;;;;;;;;5037985;28;20783;-71
2021/03/12 07:18:59;;;;;;;0.80;0.60;;;;;;;;;;5035568;28;20415;-71
2021/03/12 07:21:26;;;;;;;1.20;0.60;;;;;;;;;;5042110;28;20452;-72
2021/03/12 07:23:53;;;;;;;0.90;0.57;;;;;;;;;;5037841;28;21074;-71
2021/03/12 07:26:20;;;;;;;0.70;0.50;;;;;;;;;;5034520;28;20408;-71
2021/03/12 07:28:46;;;;;;;0.70;0.70;;;;;;;;;;5039334;28;20459;-72
2021/03/12 07:31:13;;;;;;;0.70;0.40;;;;;;;;;;5033722;28;20415;-71
2021/03/12 07:33:43;;;;;;;0.70;0.50;;;;;;;;;;5033522;28;20562;-69
2021/03/12 07:36:10;;;;;;;4.37;1.03;;;;;;;;;;5031464;28;20415;-69
2021/03/12 07:38:36;;;;;;;0.70;0.43;;;;;;;;;;5031927;28;20413;-69
2021/03/12 07:41:03;;;;;;;0.80;0.73;;;;;;;;;;5035169;28;20467;-70
2021/03/12 07:43:32;;;;;;;1.00;0.60;;;;;;;;;;5033606;28;20421;-70
2021/03/12 07:46:01;;;;;;;0.80;0.70;;;;;;;;;;5033595;28;20402;-71
2021/03/12 07:48:28;;;;;;;0.80;0.50;;;;;;;;;;5031921;28;20404;-69
2021/03/12 07:51:04;;;;;;;0.80;0.70;;;;;;;;;;5034265;28;20404;-70
2021/03/12 07:53:50;;;;;;;0.70;0.40;;;;;;;;;;5032828;28;20857;-70
2021/03/12 07:56:17;;;;;;;0.70;0.50;;;;;;;;;;5034101;28;20368;-72
2021/03/12 07:58:53;;;;;;;0.70;0.40;;;;;;;;;;5034735;28;20833;-72
2021/03/12 08:01:19;;;;;;;2.97;2.77;;;;;;;;;;5034265;28;20507;-71
2021/03/12 08:03:47;;;;;;;0.70;0.40;;;;;;;;;;5034783;28;20482;-69
2021/03/12 08:06:20;;;;;;;0.70;0.60;;;;;;;;;;5035536;28;20840;-72
2021/03/12 08:08:46;;;;;;;0.70;0.50;;;;;;;;;;5035223;28;20379;-72
2021/03/12 08:11:19;;;;;;;1.67;0.97;;;;;;;;;;5032921;28;20444;-72
2021/03/12 08:13:45;;;;;;;0.80;0.50;;;;;;;;;;5035578;28;20450;-72
2021/03/12 08:16:11;;;;;;;0.70;0.50;;;;;;;;;;5035640;28;20416;-72
2021/03/12 08:18:37;;;;;;;0.70;0.50;;;;;;;;;;5039177;28;20406;-71
2021/03/12 08:21:22;;;;;;;0.70;0.40;;;;;;;;;;5042008;28;20451;-71
2021/03/12 08:23:48;;;;;;;0.80;0.70;;;;;;;;;;5038738;28;20431;-72
2021/03/12 08:26:34;;;;;;;0.70;0.50;;;;;;;;;;5041803;28;20421;-71
2021/03/12 08:29:19;;;;;;;0.70;0.50;;;;;;;;;;5042878;28;20398;-71
2021/03/12 08:31:45;;;;;;;0.70;0.50;;;;;;;;;;5044436;28;20406;-71
2021/03/12 08:34:43;;;;;;;0.70;0.50;;;;;;;;;;5043753;28;20433;-72
2021/03/12 08:37:30;;;;;;;0.70;0.50;;;;;;;;;;4984235;28;20508;-71
2021/03/12 08:40:14;;;;;;;0.70;0.50;;;;;;;;;;5033516;28;20543;-72
2021/03/12 08:43:03;;;;;;;0.70;0.50;;;;;;;;;;5034995;28;20463;-71
2021/03/12 08:45:40;;;;;;;1.10;0.77;;;;;;;;;;5032493;28;20411;-71
2021/03/12 08:48:06;;;;;;;0.70;0.50;;;;;;;;;;5034884;28;20406;-72
2021/03/12 08:50:33;;;;;;;0.70;0.67;;;;;;;;;;5034468;28;20381;-72
2021/03/12 08:52:59;;;;;;;0.70;0.50;;;;;;;;;;5033050;28;20414;-71
2021/03/12 08:55:25;;;;;;;0.70;0.50;;;;;;;;;;5032453;28;20513;-70
2021/03/12 08:57:51;;;;;;;0.70;0.40;;;;;;;;;;5037151;28;20423;-72
2021/03/12 09:00:17;;;;;;;0.70;0.50;;;;;;;;;;5034355;28;20419;-71
2021/03/12 09:02:43;;;;;;;0.70;0.50;;;;;;;;;;5031902;28;20539;-71
2021/03/12 09:05:23;;;;;;;0.70;0.47;;;;;;;;;;5031533;28;20422;-72
2021/03/12 09:07:52;;;;;;;0.70;0.50;;;;;;;;;;5031799;28;20439;-69
2021/03/12 09:10:28;;;;;;;0.70;0.60;;;;;;;;;;5032963;28;20489;-71
2021/03/12 09:12:54;;;;;;;0.90;0.70;;;;;;;;;;5028735;28;20378;-70
2021/03/12 09:15:23;;;;;;;0.80;0.80;;;;;;;;;;5033324;28;20435;-71
2021/03/12 09:17:49;;;;;;;0.70;0.60;;;;;;;;;;5035473;28;20423;-70
2021/03/12 09:20:21;;;;;;;0.70;0.53;;;;;;;;;;5028204;28;20386;-72
2021/03/12 09:22:53;;;;;;;0.70;0.50;;;;;;;;;;5026057;28;20449;-72
2021/03/12 09:25:30;;;;;;;0.80;0.73;;;;;;;;;;5030916;28;20501;-72
2021/03/12 09:28:06;;;;;;;0.97;0.83;;;;;;;;;;5034150;28;20403;-72
2021/03/12 09:30:53;;;;;;;2.30;2.20;;;;;;;;;;5030784;28;20876;-72
2021/03/12 09:33:35;;;;;;;0.90;0.80;;;;;;;;;;5029685;28;20436;-72
2021/03/12 09:36:03;;;;;;;0.80;0.60;;;;;;;;;;5030269;28;20408;-72
2021/03/12 09:38:30;;;;;;;0.80;0.40;;;;;;;;;;5027964;28;20411;-71
2021/03/12 09:40:56;;;;;;;0.70;0.50;;;;;;;;;;5030851;28;20797;-70
2021/03/12 09:43:22;;;;;;;0.70;0.60;;;;;;;;;;5031036;28;20437;-72
2021/03/12 09:45:49;;;;;;;1.63;0.60;;;;;;;;;;5031058;28;20374;-72
2021/03/12 09:48:15;;;;;;;0.70;0.60;;;;;;;;;;5030940;28;20381;-72
2021/03/12 09:50:41;;;;;;;0.70;0.40;;;;;;;;;;5012300;28;21181;-72
2021/03/12 09:53:07;;;;;;;1.40;0.87;;;;;;;;;;5030401;28;20502;-72
2021/03/12 09:55:37;;;;;;;0.80;0.50;;;;;;;;;;5032119;28;20421;-71
2021/03/12 09:58:13;;;;;;;0.70;0.50;;;;;;;;;;5031004;28;20466;-70
2021/03/12 10:00:39;;;;;;;4.50;1.27;;;;;;;;;;5035805;28;20417;-69
2021/03/12 10:03:05;;;;;;;1.37;0.93;;;;;;;;;;5032019;28;20455;-69
2021/03/12 10:05:31;;;;;;;1.30;0.70;;;;;;;;;;5032208;28;20411;-71
2021/03/12 10:08:01;;;;;;;4.90;1.17;;;;;;;;;;5032524;28;20465;-68
2021/03/12 10:10:29;;;;;;;1.33;1.07;;;;;;;;;;5029719;28;20835;-71
2021/03/12 10:12:56;;;;;;;1.17;1.07;;;;;;;;;;5038202;28;20958;-70
2021/03/12 10:15:24;;;;;;;1.30;0.80;;;;;;;;;;5029832;28;20446;-66
2021/03/12 10:17:50;;;;;;;0.80;0.50;;;;;;;;;;5030599;28;20927;-75
2021/03/12 10:20:18;;;;;;;1.00;0.70;;;;;;;;;;5014395;28;20387;-68
2021/03/12 10:22:44;;;;;;;0.70;0.40;;;;;;;;;;5031779;28;20498;-69
2021/03/12 10:25:19;;;;;;;0.70;0.50;;;;;;;;;;5030154;28;20456;-71
2021/03/12 10:27:50;;;;;;;0.90;0.80;;;;;;;;;;5040093;28;20431;-69
2021/03/12 10:30:16;;;;;;;1.20;0.73;;;;;;;;;;5030610;28;20400;-71
2021/03/12 10:32:46;;;;;;;1.00;0.50;;;;;;;;;;5026970;28;20873;-70
2021/03/12 10:35:17;;;;;;;0.70;0.60;;;;;;;;;;5028701;28;20424;-70
2021/03/12 10:37:43;;;;;;;0.80;0.60;;;;;;;;;;5029633;28;20412;-69
2021/03/12 10:40:09;;;;;;;0.70;0.50;;;;;;;;;;5028304;28;20407;-69
2021/03/12 10:42:35;;;;;;;1.33;0.70;;;;;;;;;;5029680;28;20447;-69
2021/03/12 10:45:04;;;;;;;0.70;0.50;;;;;;;;;;5025876;28;20424;-70
2021/03/12 10:47:30;;;;;;;0.80;0.80;;;;;;;;;;5030342;28;20428;-69
2021/03/12 10:49:56;;;;;;;1.07;0.60;;;;;;;;;;5032467;28;20852;-69
2021/03/12 10:52:22;;;;;;;1.03;0.60;;;;;;;;;;5030824;28;20408;-71
2021/03/12 10:54:48;;;;;;;0.70;0.60;;;;;;;;;;5014918;28;20420;-70
2021/03/12 10:57:15;;;;;;;0.97;0.97;;;;;;;;;;5030507;28;20378;-70
2021/03/12 10:59:59;;;;;;;0.90;0.60;;;;;;;;;;5018436;28;20390;-70
2021/03/12 11:02:32;;;;;;;0.70;0.50;;;;;;;;;;5040335;28;20609;-70
2021/03/12 11:04:59;;;;;;;2.50;1.23;;;;;;;;;;5030414;28;20518;-70
2021/03/12 11:07:25;;;;;;;0.80;0.70;;;;;;;;;;5032001;28;20405;-70
2021/03/12 11:09:53;;;;;;;0.70;0.50;;;;;;;;;;5024792;28;20441;-70
2021/03/12 11:12:19;;;;;;;0.97;0.73;;;;;;;;;;5039857;28;20742;-70
2021/03/12 11:14:47;;;;;;;0.80;0.60;;;;;;;;;;5043350;28;20428;-69
2021/03/12 11:17:13;;;;;;;0.80;0.60;;;;;;;;;;5024261;28;20847;-70
2021/03/12 11:19:39;;;;;;;1.07;0.97;;;;;;;;;;5035810;28;20464;-70
2021/03/12 11:22:05;;;;;;;1.00;0.70;;;;;;;;;;5031762;28;20448;-70
2021/03/12 11:24:31;;;;;;;1.13;1.03;;;;;;;;;;5031892;28;20437;-70
2021/03/12 11:26:57;;;;;;;7.90;0.93;;;;;;;;;;5034436;28;20783;-70
2021/03/12 11:29:24;;;;;;;1.43;0.90;;;;;;;;;;5034558;28;20731;-70
2021/03/12 11:31:50;;;;;;;1.10;1.00;;;;;;;;;;5028769;28;20885;-68
2021/03/12 11:34:16;;;;;;;0.70;0.50;;;;;;;;;;5031929;28;20509;-70
2021/03/12 11:36:42;;;;;;;0.80;0.50;;;;;;;;;;5035914;28;20913;-69
2021/03/12 11:39:11;;;;;;;0.83;0.77;;;;;;;;;;5035484;28;20883;-70
2021/03/12 11:41:37;;;;;;;0.93;0.73;;;;;;;;;;5033794;28;20844;-70
2021/03/12 11:44:03;;;;;;;0.80;0.53;;;;;;;;;;5036162;28;20589;-68
2021/03/12 11:46:30;;;;;;;0.93;0.80;;;;;;;;;;5040780;28;20396;-70
2021/03/12 11:48:56;;;;;;;1.10;0.80;;;;;;;;;;5034194;28;20400;-70
2021/03/12 11:51:22;;;;;;;0.80;0.60;;;;;;;;;;5033050;28;20462;-68
2021/03/12 11:53:48;;;;;;;1.10;0.77;;;;;;;;;;5034284;28;20402;-70
2021/03/12 11:56:14;;;;;;;28.33;2.37;;;;;;;;;;5032883;28;20446;-70
2021/03/12 11:58:40;;;;;;;1.77;0.60;;;;;;;;;;5034832;28;20375;-70
2021/03/12 12:01:06;;;;;;;1.67;0.70;;;;;;;;;;5034330;28;20373;-70
2021/03/12 12:03:32;;;;;;;0.77;0.60;;;;;;;;;;5016606;28;20417;-70
2021/03/12 12:05:58;;;;;;;0.70;0.40;;;;;;;;;;5034255;28;20881;-70
2021/03/12 12:08:24;;;;;;;0.80;0.70;;;;;;;;;;5034031;28;20487;-70
2021/03/12 12:10:50;;;;;;;0.77;0.57;;;;;;;;;;5016104;28;20408;-70
2021/03/12 12:13:16;;;;;;;0.80;0.50;;;;;;;;;;5049834;28;20384;-70
2021/03/12 12:15:42;;;;;;;0.70;0.50;;;;;;;;;;5037772;28;20406;-70
2021/03/12 12:18:10;;;;;;;1.00;0.90;;;;;;;;;;5034816;28;21154;-70
2021/03/12 12:20:42;;;;;;;0.70;0.50;;;;;;;;;;5034901;28;20378;-62
2021/03/12 12:23:08;;;;;;;0.70;0.40;;;;;;;;;;5034391;28;20430;-63
2021/03/12 12:25:34;;;;;;;0.70;0.50;;;;;;;;;;5058974;23;20904;-69
2021/03/12 12:28:00;;;;;;;0.90;0.60;;;;;;;;;;5057826;28;20409;-66
2021/03/12 12:30:26;;;;;;;1.20;0.57;;;;;;;;;;5082387;28;20624;-71
2021/03/12 12:32:52;;;;;;;0.80;0.70;;;;;;;;;;5074548;28;20654;-69
2021/03/12 12:35:18;;;;;;;0.70;0.50;;;;;;;;;;5072742;28;20385;-71
2021/03/12 12:37:44;;;;;;;0.70;0.60;;;;;;;;;;5069711;28;20414;-71
2021/03/12 12:40:12;;;;;;;0.70;0.50;;;;;;;;;;5071589;28;20386;-67
2021/03/12 12:42:38;;;;;;;0.80;0.60;;;;;;;;;;5085094;28;20456;-67
2021/03/12 12:45:05;;;;;;;0.70;0.40;;;;;;;;;;5059223;28;20795;-67
2021/03/12 12:47:31;;;;;;;0.70;0.40;;;;;;;;;;5089958;28;20403;-66
2021/03/12 12:49:56;;;;;;;0.80;0.70;;;;;;;;;;5079456;28;20395;-66
2021/03/12 12:52:22;;;;;;;0.77;0.60;;;;;;;;;;5077330;28;20884;-67
2021/03/12 12:54:48;;;;;;;0.80;0.60;;;;;;;;;;5054161;28;20480;-67
2021/03/12 12:57:16;;;;;;;0.80;0.60;;;;;;;;;;5054467;28;20925;-68
2021/03/12 12:59:42;;;;;;;0.70;0.50;;;;;;;;;;5042799;28;20394;-67
2021/03/12 13:02:08;;;;;;;1.20;0.50;;;;;;;;;;5084754;28;20817;-67
2021/03/12 13:04:37;;;;;;;0.70;0.40;;;;;;;;;;5065996;28;20416;-65
2021/03/12 13:07:03;;;;;;;0.80;0.70;;;;;;;;;;5093282;28;20457;-65
2021/03/12 13:09:31;;;;;;;1.70;0.93;;;;;;;;;;5075386;28;20397;-67
2021/03/12 13:11:57;;;;;;;0.70;0.50;;;;;;;;;;5086259;28;20440;-69
2021/03/12 13:14:23;;;;;;;2.50;0.77;;;;;;;;;;5081973;28;20831;-67
2021/03/12 13:16:49;;;;;;;1.57;1.47;;;;;;;;;;5078995;28;20401;-66
2021/03/12 13:19:15;;;;;;;1.00;0.70;;;;;;;;;;5070969;28;20383;-68
2021/03/12 13:21:42;;;;;;;0.80;0.70;;;;;;;;;;5076285;28;21071;-66
2021/03/12 13:24:08;;;;;;;0.70;0.57;;;;;;;;;;5086231;28;20406;-67
2021/03/12 13:26:37;;;;;;;0.77;0.50;;;;;;;;;;5084103;28;20455;-68
2021/03/12 13:29:03;;;;;;;1.83;1.73;;;;;;;;;;5077808;28;20726;-65
2021/03/12 13:31:29;;;;;;;0.70;0.60;;;;;;;;;;5083839;28;20504;-71
2021/03/12 13:33:55;;;;;;;0.90;0.63;;;;;;;;;;5091940;28;20379;-71
2021/03/12 13:36:21;;;;;;;2.30;2.10;;;;;;;;;;5091978;28;20413;-71
2021/03/12 13:38:47;;;;;;;0.70;0.50;;;;;;;;;;5091889;28;20378;-69
2021/03/12 13:41:13;;;;;;;1.00;0.90;;;;;;;;;;5076233;28;20388;-70
2021/03/12 13:43:41;;;;;;;0.70;0.50;;;;;;;;;;5071579;28;20372;-71
2021/03/12 13:46:10;;;;;;;0.70;0.50;;;;;;;;;;5071204;28;20420;-71
2021/03/12 13:48:36;;;;;;;0.90;0.80;;;;;;;;;;5071667;28;20401;-71
2021/03/12 13:51:02;;;;;;;1.07;0.97;;;;;;;;;;5071392;28;20842;-70
2021/03/12 13:53:28;;;;;;;0.70;0.50;;;;;;;;;;5071797;28;20390;-70
2021/03/12 13:55:54;;;;;;;0.80;0.50;;;;;;;;;;5071523;28;20408;-71
2021/03/12 13:58:20;;;;;;;1.47;0.90;;;;;;;;;;5070921;28;20430;-71
2021/03/12 14:00:46;;;;;;;2.70;1.27;;;;;;;;;;5071345;28;21058;-70
2021/03/12 14:03:12;;;;;;;0.70;0.50;;;;;;;;;;5071043;28;21101;-67
2021/03/12 14:05:38;;;;;;;0.70;0.50;;;;;;;;;;5071053;28;20940;-71
2021/03/12 14:08:04;;;;;;;0.70;0.50;;;;;;;;;;5071272;28;20376;-71
2021/03/12 14:10:30;;;;;;;0.70;0.70;;;;;;;;;;5055869;28;20406;-71
2021/03/12 14:12:56;;;;;;;0.70;0.50;;;;;;;;;;5051018;28;20406;-73
2021/03/12 14:15:22;;;;;;;0.70;0.60;;;;;;;;;;5051120;28;20401;-69
2021/03/12 14:17:48;;;;;;;0.80;0.50;;;;;;;;;;5033098;28;20829;-71
2021/03/12 14:20:14;;;;;;;0.80;0.63;;;;;;;;;;5052230;28;20413;-70
2021/03/12 14:22:40;;;;;;;0.70;0.43;;;;;;;;;;5051441;28;20808;-70
2021/03/12 14:25:06;;;;;;;0.70;0.50;;;;;;;;;;5032860;28;20931;-69
2021/03/12 14:27:35;;;;;;;0.80;0.60;;;;;;;;;;5050808;28;20767;-70
2021/03/12 14:30:00;;;;;;;0.70;0.57;;;;;;;;;;5051499;28;20777;-71
2021/03/12 14:32:26;;;;;;;0.70;0.50;;;;;;;;;;5050766;28;20466;-69
2021/03/12 14:34:52;;;;;;;1.77;1.00;;;;;;;;;;5050657;28;20400;-71
2021/03/12 14:37:18;;;;;;;0.70;0.50;;;;;;;;;;5032539;28;20419;-71
2021/03/12 14:39:44;;;;;;;0.70;0.40;;;;;;;;;;5035373;28;20465;-71
2021/03/12 14:42:10;;;;;;;0.70;0.50;;;;;;;;;;5070056;28;20455;-72
2021/03/12 14:44:37;;;;;;;1.47;1.37;;;;;;;;;;5070509;28;20923;-71
2021/03/12 14:47:03;;;;;;;0.70;0.40;;;;;;;;;;5070588;28;20361;-71